Terminal Aerodrome Forecast
Issued by NWS Louisville, KY

Home | Current Version | Previous Version | Text Only | Print | Product List | Glossary On
Versions: 1 2 3 4 5 6 7 8 9 10 11 12 13 14 15 16 17 18 19
000
FTUS43 KLMK 280737 AAA
TAFLEX
TAF AMD
KLEX 280737Z 2808/2906 VRB04KT P6SM VCSH BKN022
     FM281000 28005KT 5SM BR OVC009
     FM281500 32006KT P6SM OVC013
     FM290000 02006KT P6SM OVC017=

USA.gov is the U.S. government's official web portal to all federal, state and local government web resources and services.